createdAt,value
2023-01-17T00:04:10.176Z,978.35
2023-01-17T00:10:32.978Z,978.39
2023-01-17T00:16:53.065Z,978.43
2023-01-17T00:23:15.998Z,978.52
2023-01-17T00:29:36.034Z,978.64
2023-01-17T00:35:59.052Z,978.66
2023-01-17T00:42:19.042Z,978.8
2023-01-17T00:48:42.025Z,978.88
2023-01-17T00:55:02.081Z,978.95
2023-01-17T01:01:25.249Z,979.03
2023-01-17T01:07:44.994Z,979.17
2023-01-17T01:14:08.034Z,979.29
2023-01-17T01:20:28.020Z,979.33
2023-01-17T01:26:51.015Z,979.46
2023-01-17T01:33:11.075Z,979.5
2023-01-17T01:39:34.042Z,979.62
2023-01-17T01:45:54.075Z,979.86
2023-01-17T01:52:17.099Z,979.96
2023-01-17T01:58:37.125Z,980.04
2023-01-17T02:05:00.034Z,980.11
2023-01-17T02:11:20.101Z,980.23
2023-01-17T02:17:42.979Z,980.35
2023-01-17T02:24:02.979Z,980.47
2023-01-17T02:30:26.005Z,980.58
2023-01-17T02:36:46.039Z,980.64
2023-01-17T02:43:09.010Z,980.74
2023-01-17T02:49:29.026Z,980.84
2023-01-17T02:55:52.150Z,980.92
2023-01-17T03:02:12.206Z,980.95
2023-01-17T03:08:35.003Z,981.03
2023-01-17T03:14:54.997Z,981.11
2023-01-17T03:21:17.989Z,981.17
2023-01-17T03:27:37.999Z,981.23
2023-01-17T03:34:01.001Z,981.25
2023-01-17T03:40:21.000Z,981.31
2023-01-17T03:46:44.019Z,981.35
2023-01-17T03:53:04.000Z,981.37
2023-01-17T03:59:27.014Z,981.41
2023-01-17T04:21:35.985Z,981.5
2023-01-17T04:27:59.015Z,981.44
2023-01-17T04:34:18.996Z,981.42
2023-01-17T04:40:42.002Z,981.44
2023-01-17T04:47:02.019Z,981.44
2023-01-17T04:53:24.994Z,981.52
2023-01-17T04:59:45.032Z,981.6
2023-01-17T05:06:08.018Z,981.62
2023-01-17T05:12:27.981Z,981.66
2023-01-17T05:18:51.020Z,981.62
2023-01-17T05:25:10.974Z,981.64
2023-01-17T05:31:34.021Z,981.6
2023-01-17T05:37:54.036Z,981.64
2023-01-17T05:44:17.058Z,981.68
2023-01-17T05:50:36.978Z,981.74
2023-01-17T05:57:00.067Z,981.8
2023-01-17T06:03:20.007Z,981.88
2023-01-17T06:09:43.005Z,981.95
2023-01-17T06:16:03.128Z,981.99
2023-01-17T06:22:25.972Z,982.07
2023-01-17T06:28:46.032Z,982.07
2023-01-17T06:35:09.012Z,982.15
2023-01-17T06:41:29.005Z,982.19
2023-01-17T06:47:52.012Z,982.19
2023-01-17T06:54:11.995Z,982.19
2023-01-17T07:00:35.298Z,982.27
2023-01-17T07:06:55.031Z,982.39
2023-01-17T07:13:18.002Z,982.41
2023-01-17T07:19:38.084Z,982.43
2023-01-17T07:26:00.989Z,982.41
2023-01-17T07:32:21.084Z,982.39
2023-01-17T07:38:44.007Z,982.39
2023-01-17T07:45:03.978Z,982.41
2023-01-17T07:51:27.037Z,982.45
2023-01-17T07:57:47.014Z,982.49
2023-01-17T08:04:10.038Z,982.51
2023-01-17T08:10:30.063Z,982.49
2023-01-17T08:16:52.984Z,982.49
2023-01-17T08:23:13.057Z,982.45
2023-01-17T08:29:36.007Z,982.47
2023-01-17T08:35:56.001Z,982.41
2023-01-17T08:42:19.015Z,982.43
2023-01-17T08:48:39.014Z,982.43
2023-01-17T08:55:02.010Z,982.43
2023-01-17T09:01:22.123Z,982.51
2023-01-17T09:24:11.026Z,982.57
2023-01-17T09:30:34.022Z,982.59
2023-01-17T09:36:54.015Z,982.57
2023-01-17T09:43:17.049Z,982.57
2023-01-17T09:49:37.294Z,982.57
2023-01-17T09:56:00.052Z,982.65
2023-01-17T10:02:20.349Z,982.7
2023-01-17T10:08:42.978Z,982.72
2023-01-17T10:15:03.032Z,982.74
2023-01-17T10:21:26.054Z,982.72
2023-01-17T10:27:46.053Z,982.7
2023-01-17T10:34:09.000Z,982.72
2023-01-17T10:40:29.035Z,982.74
2023-01-17T10:46:51.989Z,982.7
2023-01-17T10:53:12.068Z,982.66
2023-01-17T10:59:35.003Z,982.65
2023-01-17T11:05:54.988Z,982.66
2023-01-17T11:12:17.998Z,982.63
2023-01-17T11:18:38.034Z,982.53
2023-01-17T11:25:01.008Z,982.45
2023-01-17T11:31:21.065Z,982.41
2023-01-17T11:37:44.081Z,982.35
2023-01-17T11:44:04.022Z,982.27
2023-01-17T11:50:26.998Z,982.25
2023-01-17T11:56:47.115Z,982.27
2023-01-17T12:03:10.031Z,982.25
2023-01-17T12:09:30.291Z,982.17
2023-01-17T12:15:53.190Z,982.11
2023-01-17T12:22:12.979Z,982.03
2023-01-17T12:28:35.988Z,981.95
2023-01-17T12:34:56.011Z,981.89
2023-01-17T12:41:19.023Z,981.82
2023-01-17T12:47:39.002Z,981.72
2023-01-17T12:54:02.024Z,981.7
2023-01-17T13:00:22.160Z,981.6
2023-01-17T13:06:44.995Z,981.56
2023-01-17T13:13:05.144Z,981.48
2023-01-17T13:19:27.994Z,981.48
2023-01-17T13:25:47.992Z,981.54
2023-01-17T13:32:11.030Z,981.6
2023-01-17T13:38:30.978Z,981.56
2023-01-17T13:44:54.009Z,981.52
2023-01-17T13:51:14.027Z,981.56
2023-01-17T13:57:37.030Z,981.56
2023-01-17T14:03:56.977Z,981.52
2023-01-17T14:10:20.043Z,981.54
2023-01-17T14:33:05.017Z,981.6
2023-01-17T14:39:27.998Z,981.62
2023-01-17T14:45:48.014Z,981.56
2023-01-17T14:52:11.014Z,981.54
2023-01-17T14:58:31.030Z,981.56
2023-01-17T15:04:53.983Z,981.54
2023-01-17T15:11:14.078Z,981.56
2023-01-17T15:17:36.984Z,981.58
2023-01-17T15:23:57.006Z,981.56
2023-01-17T15:30:20.086Z,981.54
2023-01-17T15:36:40.051Z,981.56
2023-01-17T15:43:04.127Z,981.54
2023-01-17T15:49:24.145Z,981.56
2023-01-17T15:55:46.985Z,981.62
2023-01-17T16:02:07.173Z,981.72
2023-01-17T16:08:30.028Z,981.76
2023-01-17T16:15:06.403Z,981.8
2023-01-17T16:21:13.000Z,981.82
2023-01-17T16:27:33.025Z,981.86
2023-01-17T16:33:56.184Z,981.91
2023-01-17T16:40:15.964Z,981.93
2023-01-17T16:46:39.111Z,981.95
2023-01-17T16:52:59.012Z,981.97
2023-01-17T16:59:21.969Z,982.07
2023-01-17T17:05:42.065Z,982.15
2023-01-17T17:12:05.416Z,982.23
2023-01-17T17:18:26.006Z,982.23
2023-01-17T17:24:49.034Z,982.27
2023-01-17T17:31:09.102Z,982.37
2023-01-17T17:37:31.991Z,982.45
2023-01-17T17:43:52.313Z,982.55
2023-01-17T17:50:14.985Z,982.63
2023-01-17T17:56:35.017Z,982.68
2023-01-17T18:02:57.998Z,982.76
2023-01-17T18:09:18.073Z,982.82
2023-01-17T18:15:40.975Z,982.88
2023-01-17T18:22:01.016Z,982.96
2023-01-17T18:28:24.031Z,983.02
2023-01-17T18:34:44.023Z,983.1
2023-01-17T18:41:07.058Z,983.13
2023-01-17T18:47:27.308Z,983.15
2023-01-17T18:53:50.067Z,983.17
2023-01-17T19:00:10.070Z,983.21
2023-01-17T19:06:32.980Z,983.23
2023-01-17T19:28:24.004Z,983.41
2023-01-17T19:34:46.970Z,983.51
2023-01-17T19:41:07.032Z,983.57
2023-01-17T19:47:30.025Z,983.64
2023-01-17T19:53:49.983Z,983.68
2023-01-17T20:00:12.970Z,983.78
2023-01-17T20:06:33.234Z,983.86
2023-01-17T20:12:56.093Z,983.9
2023-01-17T20:19:15.970Z,983.96
2023-01-17T20:25:39.077Z,984.02
2023-01-17T20:31:59.019Z,984.04
2023-01-17T20:38:22.029Z,984.13
2023-01-17T20:44:42.009Z,984.15
2023-01-17T20:51:04.969Z,984.19
2023-01-17T20:57:24.974Z,984.25
2023-01-17T21:03:48.008Z,984.25
2023-01-17T21:10:08.042Z,984.33
2023-01-17T21:16:31.172Z,984.37
2023-01-17T21:22:51.003Z,984.43
2023-01-17T21:29:14.062Z,984.47
2023-01-17T21:35:33.984Z,984.53
2023-01-17T21:41:57.000Z,984.58
2023-01-17T21:48:17.012Z,984.62
2023-01-17T21:54:39.973Z,984.64
2023-01-17T22:01:00.110Z,984.68
2023-01-17T22:07:22.986Z,984.72
2023-01-17T22:13:43.013Z,984.74
2023-01-17T22:20:07.014Z,984.8
2023-01-17T22:26:27.028Z,984.92
2023-01-17T22:32:50.089Z,984.92
2023-01-17T22:39:10.020Z,984.94
2023-01-17T22:45:32.998Z,984.96
2023-01-17T22:51:53.025Z,985
2023-01-17T22:58:16.026Z,985
2023-01-17T23:21:13.011Z,984.94
2023-01-17T23:27:32.974Z,984.94
2023-01-17T23:33:56.050Z,984.94
2023-01-17T23:40:16.041Z,984.94
2023-01-17T23:46:39.088Z,984.94
2023-01-17T23:52:59.306Z,984.92
2023-01-17T23:59:22.049Z,984.92
